sensor_id;sensor_type;location;lat;lon;timestamp;P1;durP1;ratioP1;P2;durP2;ratioP2
9422;SDS011;65863;49.506;10.400;2023-07-09T00:01:30;7.93;;;5.30;;
9422;SDS011;65863;49.506;10.400;2023-07-09T00:04:15;8.57;;;5.50;;
9422;SDS011;65863;49.506;10.400;2023-07-09T00:07:00;7.20;;;5.27;;
9422;SDS011;65863;49.506;10.400;2023-07-09T00:09:46;5.87;;;5.10;;
9422;SDS011;65863;49.506;10.400;2023-07-09T00:12:30;6.80;;;5.37;;
9422;SDS011;65863;49.506;10.400;2023-07-09T00:15:15;7.97;;;5.70;;
9422;SDS011;65863;49.506;10.400;2023-07-09T00:17:59;7.77;;;6.10;;
9422;SDS011;65863;49.506;10.400;2023-07-09T00:20:44;7.87;;;5.37;;
9422;SDS011;65863;49.506;10.400;2023-07-09T00:23:28;9.13;;;5.83;;
9422;SDS011;65863;49.506;10.400;2023-07-09T00:26:14;8.03;;;6.17;;
9422;SDS011;65863;49.506;10.400;2023-07-09T00:28:59;7.53;;;5.53;;
9422;SDS011;65863;49.506;10.400;2023-07-09T00:31:43;9.03;;;6.73;;
9422;SDS011;65863;49.506;10.400;2023-07-09T00:34:27;6.53;;;5.40;;
9422;SDS011;65863;49.506;10.400;2023-07-09T00:37:11;9.77;;;6.23;;
9422;SDS011;65863;49.506;10.400;2023-07-09T00:39:56;10.67;;;6.20;;
9422;SDS011;65863;49.506;10.400;2023-07-09T00:42:42;7.97;;;6.70;;
9422;SDS011;65863;49.506;10.400;2023-07-09T00:45:29;10.30;;;6.93;;
9422;SDS011;65863;49.506;10.400;2023-07-09T00:48:16;7.33;;;6.03;;
9422;SDS011;65863;49.506;10.400;2023-07-09T00:51:01;8.17;;;6.33;;
9422;SDS011;65863;49.506;10.400;2023-07-09T00:53:45;13.17;;;6.43;;
9422;SDS011;65863;49.506;10.400;2023-07-09T00:56:38;7.83;;;6.00;;
9422;SDS011;65863;49.506;10.400;2023-07-09T00:59:26;8.37;;;6.00;;
9422;SDS011;65863;49.506;10.400;2023-07-09T01:02:12;7.03;;;5.27;;
9422;SDS011;65863;49.506;10.400;2023-07-09T01:04:59;10.30;;;5.30;;
9422;SDS011;65863;49.506;10.400;2023-07-09T01:07:47;7.33;;;5.23;;
9422;SDS011;65863;49.506;10.400;2023-07-09T01:10:32;7.87;;;5.80;;
9422;SDS011;65863;49.506;10.400;2023-07-09T01:13:16;7.93;;;5.70;;
9422;SDS011;65863;49.506;10.400;2023-07-09T01:16:03;5.10;;;4.57;;
9422;SDS011;65863;49.506;10.400;2023-07-09T01:18:47;5.47;;;4.93;;
9422;SDS011;65863;49.506;10.400;2023-07-09T01:21:31;6.73;;;5.73;;
9422;SDS011;65863;49.506;10.400;2023-07-09T01:24:46;7.03;;;5.60;;
9422;SDS011;65863;49.506;10.400;2023-07-09T01:27:42;7.17;;;5.67;;
9422;SDS011;65863;49.506;10.400;2023-07-09T01:30:34;9.47;;;5.70;;
9422;SDS011;65863;49.506;10.400;2023-07-09T01:33:22;8.27;;;5.67;;
9422;SDS011;65863;49.506;10.400;2023-07-09T01:36:07;7.47;;;4.97;;
9422;SDS011;65863;49.506;10.400;2023-07-09T01:38:52;5.97;;;5.07;;
9422;SDS011;65863;49.506;10.400;2023-07-09T01:41:39;7.93;;;5.37;;
9422;SDS011;65863;49.506;10.400;2023-07-09T01:44:23;6.10;;;4.87;;
9422;SDS011;65863;49.506;10.400;2023-07-09T01:47:07;5.43;;;4.93;;
9422;SDS011;65863;49.506;10.400;2023-07-09T01:49:51;7.10;;;5.47;;
9422;SDS011;65863;49.506;10.400;2023-07-09T01:52:40;6.57;;;5.13;;
9422;SDS011;65863;49.506;10.400;2023-07-09T01:55:27;7.07;;;5.77;;
9422;SDS011;65863;49.506;10.400;2023-07-09T01:58:12;5.90;;;5.00;;
9422;SDS011;65863;49.506;10.400;2023-07-09T02:00:57;10.47;;;5.83;;
9422;SDS011;65863;49.506;10.400;2023-07-09T02:03:42;12.00;;;6.17;;
9422;SDS011;65863;49.506;10.400;2023-07-09T02:06:28;6.80;;;5.60;;
9422;SDS011;65863;49.506;10.400;2023-07-09T02:09:15;6.00;;;5.37;;
9422;SDS011;65863;49.506;10.400;2023-07-09T02:11:59;7.43;;;5.60;;
9422;SDS011;65863;49.506;10.400;2023-07-09T02:14:44;8.87;;;6.00;;
9422;SDS011;65863;49.506;10.400;2023-07-09T02:17:29;8.03;;;5.40;;
9422;SDS011;65863;49.506;10.400;2023-07-09T02:20:13;6.90;;;5.83;;
9422;SDS011;65863;49.506;10.400;2023-07-09T02:22:58;7.13;;;5.53;;
9422;SDS011;65863;49.506;10.400;2023-07-09T02:25:42;5.57;;;4.97;;
9422;SDS011;65863;49.506;10.400;2023-07-09T02:28:26;7.27;;;5.40;;
9422;SDS011;65863;49.506;10.400;2023-07-09T02:31:11;7.40;;;5.07;;
9422;SDS011;65863;49.506;10.400;2023-07-09T02:33:55;6.93;;;5.07;;
9422;SDS011;65863;49.506;10.400;2023-07-09T02:36:40;8.90;;;5.60;;
9422;SDS011;65863;49.506;10.400;2023-07-09T02:39:27;9.57;;;5.30;;
9422;SDS011;65863;49.506;10.400;2023-07-09T02:42:12;8.17;;;5.53;;
9422;SDS011;65863;49.506;10.400;2023-07-09T02:44:57;9.03;;;5.73;;
9422;SDS011;65863;49.506;10.400;2023-07-09T02:47:43;7.90;;;5.67;;
9422;SDS011;65863;49.506;10.400;2023-07-09T02:50:27;7.37;;;5.77;;
9422;SDS011;65863;49.506;10.400;2023-07-09T02:53:11;7.23;;;5.33;;
9422;SDS011;65863;49.506;10.400;2023-07-09T02:55:55;7.00;;;5.70;;
9422;SDS011;65863;49.506;10.400;2023-07-09T02:58:39;9.47;;;5.87;;
9422;SDS011;65863;49.506;10.400;2023-07-09T03:01:24;6.17;;;5.10;;
9422;SDS011;65863;49.506;10.400;2023-07-09T03:04:11;5.97;;;5.37;;
9422;SDS011;65863;49.506;10.400;2023-07-09T03:06:55;9.27;;;5.77;;
9422;SDS011;65863;49.506;10.400;2023-07-09T03:09:39;6.33;;;5.57;;
9422;SDS011;65863;49.506;10.400;2023-07-09T03:12:23;7.13;;;5.23;;
9422;SDS011;65863;49.506;10.400;2023-07-09T03:15:07;6.83;;;5.63;;
9422;SDS011;65863;49.506;10.400;2023-07-09T03:17:51;6.77;;;5.80;;
9422;SDS011;65863;49.506;10.400;2023-07-09T03:20:35;6.83;;;5.80;;
9422;SDS011;65863;49.506;10.400;2023-07-09T03:23:19;9.47;;;5.90;;
9422;SDS011;65863;49.506;10.400;2023-07-09T03:26:03;8.37;;;5.93;;
9422;SDS011;65863;49.506;10.400;2023-07-09T03:28:47;7.47;;;5.33;;
9422;SDS011;65863;49.506;10.400;2023-07-09T03:31:31;7.23;;;6.00;;
9422;SDS011;65863;49.506;10.400;2023-07-09T03:34:18;7.03;;;5.90;;
9422;SDS011;65863;49.506;10.400;2023-07-09T03:37:02;6.27;;;5.67;;
9422;SDS011;65863;49.506;10.400;2023-07-09T03:39:46;6.17;;;5.50;;
9422;SDS011;65863;49.506;10.400;2023-07-09T03:42:30;8.00;;;5.60;;
9422;SDS011;65863;49.506;10.400;2023-07-09T03:45:14;7.00;;;5.27;;
9422;SDS011;65863;49.506;10.400;2023-07-09T03:47:59;6.17;;;5.20;;
9422;SDS011;65863;49.506;10.400;2023-07-09T03:50:44;6.57;;;5.60;;
9422;SDS011;65863;49.506;10.400;2023-07-09T03:53:29;7.73;;;5.47;;
9422;SDS011;65863;49.506;10.400;2023-07-09T03:56:13;8.30;;;5.57;;
9422;SDS011;65863;49.506;10.400;2023-07-09T03:58:57;8.90;;;5.40;;
9422;SDS011;65863;49.506;10.400;2023-07-09T04:01:41;12.33;;;5.70;;
9422;SDS011;65863;49.506;10.400;2023-07-09T04:04:29;8.77;;;5.10;;
9422;SDS011;65863;49.506;10.400;2023-07-09T04:07:14;7.50;;;5.63;;
9422;SDS011;65863;49.506;10.400;2023-07-09T04:09:59;7.93;;;5.57;;
9422;SDS011;65863;49.506;10.400;2023-07-09T04:12:43;8.90;;;6.07;;
9422;SDS011;65863;49.506;10.400;2023-07-09T04:15:27;6.23;;;5.40;;
9422;SDS011;65863;49.506;10.400;2023-07-09T04:18:11;6.20;;;5.20;;
9422;SDS011;65863;49.506;10.400;2023-07-09T04:20:55;8.33;;;6.30;;
9422;SDS011;65863;49.506;10.400;2023-07-09T04:23:39;8.67;;;6.10;;
9422;SDS011;65863;49.506;10.400;2023-07-09T04:26:23;9.70;;;5.57;;
9422;SDS011;65863;49.506;10.400;2023-07-09T04:29:07;6.33;;;5.23;;
9422;SDS011;65863;49.506;10.400;2023-07-09T04:31:51;6.57;;;5.37;;
9422;SDS011;65863;49.506;10.400;2023-07-09T04:34:35;8.87;;;5.73;;
9422;SDS011;65863;49.506;10.400;2023-07-09T04:37:19;8.90;;;5.90;;
9422;SDS011;65863;49.506;10.400;2023-07-09T04:40:04;8.53;;;6.17;;
9422;SDS011;65863;49.506;10.400;2023-07-09T04:42:50;6.93;;;5.17;;
9422;SDS011;65863;49.506;10.400;2023-07-09T04:45:34;8.67;;;5.83;;
9422;SDS011;65863;49.506;10.400;2023-07-09T04:48:18;6.17;;;5.37;;
9422;SDS011;65863;49.506;10.400;2023-07-09T04:51:02;8.03;;;5.80;;
9422;SDS011;65863;49.506;10.400;2023-07-09T04:53:46;8.47;;;5.70;;
9422;SDS011;65863;49.506;10.400;2023-07-09T04:56:30;7.57;;;5.77;;
9422;SDS011;65863;49.506;10.400;2023-07-09T04:59:14;7.43;;;5.60;;
9422;SDS011;65863;49.506;10.400;2023-07-09T05:01:59;6.50;;;5.83;;
9422;SDS011;65863;49.506;10.400;2023-07-09T05:04:43;10.30;;;5.87;;
9422;SDS011;65863;49.506;10.400;2023-07-09T05:07:27;8.57;;;6.40;;
9422;SDS011;65863;49.506;10.400;2023-07-09T05:10:11;9.50;;;6.03;;
9422;SDS011;65863;49.506;10.400;2023-07-09T05:12:55;8.13;;;5.77;;
9422;SDS011;65863;49.506;10.400;2023-07-09T05:15:40;8.53;;;6.07;;
9422;SDS011;65863;49.506;10.400;2023-07-09T05:18:25;7.50;;;6.17;;
9422;SDS011;65863;49.506;10.400;2023-07-09T05:21:09;9.23;;;5.87;;
9422;SDS011;65863;49.506;10.400;2023-07-09T05:23:53;10.37;;;5.57;;
9422;SDS011;65863;49.506;10.400;2023-07-09T05:26:37;7.20;;;4.80;;
9422;SDS011;65863;49.506;10.400;2023-07-09T05:29:22;7.53;;;5.13;;
9422;SDS011;65863;49.506;10.400;2023-07-09T05:32:06;6.87;;;4.90;;
9422;SDS011;65863;49.506;10.400;2023-07-09T05:34:50;10.33;;;5.30;;
9422;SDS011;65863;49.506;10.400;2023-07-09T05:37:35;8.47;;;5.10;;
9422;SDS011;65863;49.506;10.400;2023-07-09T05:40:20;7.23;;;4.83;;
9422;SDS011;65863;49.506;10.400;2023-07-09T05:43:05;7.43;;;5.27;;
9422;SDS011;65863;49.506;10.400;2023-07-09T05:45:49;7.83;;;5.30;;
9422;SDS011;65863;49.506;10.400;2023-07-09T05:48:33;6.22;;;4.97;;
9422;SDS011;65863;49.506;10.400;2023-07-09T05:51:17;6.10;;;4.70;;
9422;SDS011;65863;49.506;10.400;2023-07-09T05:54:01;6.97;;;5.18;;
9422;SDS011;65863;49.506;10.400;2023-07-09T05:56:45;8.93;;;4.80;;
9422;SDS011;65863;49.506;10.400;2023-07-09T05:59:29;5.93;;;4.70;;
9422;SDS011;65863;49.506;10.400;2023-07-09T06:02:14;8.45;;;4.35;;
9422;SDS011;65863;49.506;10.400;2023-07-09T06:04:59;6.97;;;4.88;;
9422;SDS011;65863;49.506;10.400;2023-07-09T06:07:43;6.45;;;4.80;;
9422;SDS011;65863;49.506;10.400;2023-07-09T06:10:27;6.70;;;4.30;;
9422;SDS011;65863;49.506;10.400;2023-07-09T06:13:11;7.57;;;4.20;;
9422;SDS011;65863;49.506;10.400;2023-07-09T06:15:55;7.63;;;4.07;;
9422;SDS011;65863;49.506;10.400;2023-07-09T06:18:39;4.57;;;4.00;;
9422;SDS011;65863;49.506;10.400;2023-07-09T06:21:23;5.72;;;4.40;;
9422;SDS011;65863;49.506;10.400;2023-07-09T06:24:07;5.90;;;4.25;;
9422;SDS011;65863;49.506;10.400;2023-07-09T06:26:52;10.43;;;4.05;;
9422;SDS011;65863;49.506;10.400;2023-07-09T06:29:36;7.90;;;3.88;;
9422;SDS011;65863;49.506;10.400;2023-07-09T06:32:20;5.78;;;3.92;;
9422;SDS011;65863;49.506;10.400;2023-07-09T06:35:04;6.80;;;3.83;;
9422;SDS011;65863;49.506;10.400;2023-07-09T06:37:48;6.93;;;3.67;;
9422;SDS011;65863;49.506;10.400;2023-07-09T06:40:32;6.95;;;4.22;;
9422;SDS011;65863;49.506;10.400;2023-07-09T06:43:17;5.97;;;3.80;;
9422;SDS011;65863;49.506;10.400;2023-07-09T06:46:02;4.20;;;3.78;;
9422;SDS011;65863;49.506;10.400;2023-07-09T06:48:46;5.93;;;3.53;;
9422;SDS011;65863;49.506;10.400;2023-07-09T06:51:31;6.40;;;4.15;;
9422;SDS011;65863;49.506;10.400;2023-07-09T06:54:15;5.57;;;3.70;;
9422;SDS011;65863;49.506;10.400;2023-07-09T06:56:59;4.50;;;3.67;;
9422;SDS011;65863;49.506;10.400;2023-07-09T06:59:43;4.30;;;3.75;;
9422;SDS011;65863;49.506;10.400;2023-07-09T07:02:27;4.63;;;3.47;;
9422;SDS011;65863;49.506;10.400;2023-07-09T07:05:11;3.80;;;3.13;;
9422;SDS011;65863;49.506;10.400;2023-07-09T07:07:55;4.97;;;3.97;;
9422;SDS011;65863;49.506;10.400;2023-07-09T07:10:39;5.00;;;3.35;;
9422;SDS011;65863;49.506;10.400;2023-07-09T07:13:24;5.53;;;3.50;;
9422;SDS011;65863;49.506;10.400;2023-07-09T07:16:08;5.60;;;3.80;;
9422;SDS011;65863;49.506;10.400;2023-07-09T07:18:53;4.28;;;3.65;;
9422;SDS011;65863;49.506;10.400;2023-07-09T07:21:37;8.63;;;5.30;;
9422;SDS011;65863;49.506;10.400;2023-07-09T07:24:21;5.13;;;3.35;;
9422;SDS011;65863;49.506;10.400;2023-07-09T07:27:05;6.40;;;4.20;;
9422;SDS011;65863;49.506;10.400;2023-07-09T07:29:49;10.57;;;5.97;;
9422;SDS011;65863;49.506;10.400;2023-07-09T07:32:33;6.13;;;3.55;;
9422;SDS011;65863;49.506;10.400;2023-07-09T07:35:17;4.05;;;3.42;;
9422;SDS011;65863;49.506;10.400;2023-07-09T07:38:02;4.65;;;3.10;;
9422;SDS011;65863;49.506;10.400;2023-07-09T07:40:47;8.52;;;3.40;;
9422;SDS011;65863;49.506;10.400;2023-07-09T07:43:31;5.30;;;3.33;;
9422;SDS011;65863;49.506;10.400;2023-07-09T07:46:15;7.20;;;3.20;;
9422;SDS011;65863;49.506;10.400;2023-07-09T07:48:59;6.90;;;3.45;;
9422;SDS011;65863;49.506;10.400;2023-07-09T07:51:43;8.05;;;3.65;;
9422;SDS011;65863;49.506;10.400;2023-07-09T07:54:27;5.40;;;3.35;;
9422;SDS011;65863;49.506;10.400;2023-07-09T07:57:12;3.35;;;3.05;;
9422;SDS011;65863;49.506;10.400;2023-07-09T07:59:56;6.53;;;3.40;;
9422;SDS011;65863;49.506;10.400;2023-07-09T08:02:40;5.40;;;3.47;;
9422;SDS011;65863;49.506;10.400;2023-07-09T08:05:24;3.85;;;3.40;;
9422;SDS011;65863;49.506;10.400;2023-07-09T08:08:08;5.93;;;3.40;;
9422;SDS011;65863;49.506;10.400;2023-07-09T08:10:59;5.68;;;3.38;;
9422;SDS011;65863;49.506;10.400;2023-07-09T08:13:45;5.45;;;3.28;;
9422;SDS011;65863;49.506;10.400;2023-07-09T08:16:29;8.60;;;3.42;;
9422;SDS011;65863;49.506;10.400;2023-07-09T08:19:13;6.13;;;3.70;;
9422;SDS011;65863;49.506;10.400;2023-07-09T08:21:57;5.38;;;3.72;;
9422;SDS011;65863;49.506;10.400;2023-07-09T08:24:42;6.07;;;3.25;;
9422;SDS011;65863;49.506;10.400;2023-07-09T08:27:26;6.13;;;3.63;;
9422;SDS011;65863;49.506;10.400;2023-07-09T08:30:10;5.40;;;3.28;;
9422;SDS011;65863;49.506;10.400;2023-07-09T08:32:55;5.43;;;3.58;;
9422;SDS011;65863;49.506;10.400;2023-07-09T08:35:42;9.07;;;3.60;;
9422;SDS011;65863;49.506;10.400;2023-07-09T08:38:27;7.22;;;3.60;;
9422;SDS011;65863;49.506;10.400;2023-07-09T08:41:18;4.45;;;3.25;;
9422;SDS011;65863;49.506;10.400;2023-07-09T08:50:10;5.18;;;3.42;;
9422;SDS011;65863;49.506;10.400;2023-07-09T08:52:58;5.05;;;3.35;;
9422;SDS011;65863;49.506;10.400;2023-07-09T08:55:42;3.67;;;2.97;;
9422;SDS011;65863;49.506;10.400;2023-07-09T08:58:28;5.55;;;3.33;;
9422;SDS011;65863;49.506;10.400;2023-07-09T09:01:34;3.33;;;3.00;;
9422;SDS011;65863;49.506;10.400;2023-07-09T09:04:30;7.05;;;2.92;;
9422;SDS011;65863;49.506;10.400;2023-07-09T09:07:20;5.03;;;2.83;;
9422;SDS011;65863;49.506;10.400;2023-07-09T09:10:29;3.85;;;2.65;;
9422;SDS011;65863;49.506;10.400;2023-07-09T09:13:23;5.80;;;2.90;;
9422;SDS011;65863;49.506;10.400;2023-07-09T09:16:14;6.57;;;2.92;;
9422;SDS011;65863;49.506;10.400;2023-07-09T09:19:11;4.80;;;2.88;;
9422;SDS011;65863;49.506;10.400;2023-07-09T09:22:21;4.22;;;3.22;;
9422;SDS011;65863;49.506;10.400;2023-07-09T09:25:30;4.45;;;2.70;;
9422;SDS011;65863;49.506;10.400;2023-07-09T09:28:15;3.55;;;2.88;;
9422;SDS011;65863;49.506;10.400;2023-07-09T09:30:59;3.58;;;2.55;;
9422;SDS011;65863;49.506;10.400;2023-07-09T09:33:45;6.47;;;3.13;;
9422;SDS011;65863;49.506;10.400;2023-07-09T09:36:31;4.63;;;3.20;;
9422;SDS011;65863;49.506;10.400;2023-07-09T09:39:20;7.15;;;2.90;;
9422;SDS011;65863;49.506;10.400;2023-07-09T09:42:10;3.83;;;2.50;;
9422;SDS011;65863;49.506;10.400;2023-07-09T09:44:55;3.75;;;2.80;;
9422;SDS011;65863;49.506;10.400;2023-07-09T09:47:39;3.53;;;2.33;;
9422;SDS011;65863;49.506;10.400;2023-07-09T09:50:23;3.50;;;2.72;;
9422;SDS011;65863;49.506;10.400;2023-07-09T09:53:11;5.13;;;2.58;;
9422;SDS011;65863;49.506;10.400;2023-07-09T09:56:03;2.95;;;2.28;;
9422;SDS011;65863;49.506;10.400;2023-07-09T09:58:51;4.25;;;2.88;;
9422;SDS011;65863;49.506;10.400;2023-07-09T10:01:37;2.75;;;2.42;;
9422;SDS011;65863;49.506;10.400;2023-07-09T10:04:22;6.65;;;3.10;;
9422;SDS011;65863;49.506;10.400;2023-07-09T10:07:07;2.95;;;2.65;;
9422;SDS011;65863;49.506;10.400;2023-07-09T10:09:53;3.08;;;2.45;;
9422;SDS011;65863;49.506;10.400;2023-07-09T10:12:40;4.47;;;2.70;;
9422;SDS011;65863;49.506;10.400;2023-07-09T10:15:48;4.85;;;2.70;;
9422;SDS011;65863;49.506;10.400;2023-07-09T10:18:50;4.80;;;3.10;;
9422;SDS011;65863;49.506;10.400;2023-07-09T10:21:47;5.07;;;2.83;;
9422;SDS011;65863;49.506;10.400;2023-07-09T10:27:59;9.23;;;3.50;;
9422;SDS011;65863;49.506;10.400;2023-07-09T10:31:20;5.45;;;2.90;;
9422;SDS011;65863;49.506;10.400;2023-07-09T10:37:56;3.15;;;2.85;;
9422;SDS011;65863;49.506;10.400;2023-07-09T10:40:46;3.60;;;2.63;;
9422;SDS011;65863;49.506;10.400;2023-07-09T10:43:37;4.93;;;2.70;;
9422;SDS011;65863;49.506;10.400;2023-07-09T10:46:30;4.35;;;3.03;;
9422;SDS011;65863;49.506;10.400;2023-07-09T10:49:18;4.85;;;2.90;;
9422;SDS011;65863;49.506;10.400;2023-07-09T10:52:06;4.65;;;2.80;;
9422;SDS011;65863;49.506;10.400;2023-07-09T10:54:56;3.28;;;2.97;;
9422;SDS011;65863;49.506;10.400;2023-07-09T10:57:51;3.33;;;2.72;;
9422;SDS011;65863;49.506;10.400;2023-07-09T11:00:39;3.30;;;2.80;;
9422;SDS011;65863;49.506;10.400;2023-07-09T11:03:34;5.28;;;3.03;;
9422;SDS011;65863;49.506;10.400;2023-07-09T11:09:24;4.55;;;2.90;;
9422;SDS011;65863;49.506;10.400;2023-07-09T11:12:14;5.32;;;3.25;;
9422;SDS011;65863;49.506;10.400;2023-07-09T11:18:05;4.93;;;3.17;;
9422;SDS011;65863;49.506;10.400;2023-07-09T11:24:00;6.60;;;2.78;;
9422;SDS011;65863;49.506;10.400;2023-07-09T11:26:46;10.02;;;2.97;;
9422;SDS011;65863;49.506;10.400;2023-07-09T11:29:32;4.80;;;3.05;;
9422;SDS011;65863;49.506;10.400;2023-07-09T11:32:18;6.57;;;3.33;;
9422;SDS011;65863;49.506;10.400;2023-07-09T11:35:08;5.53;;;3.03;;
9422;SDS011;65863;49.506;10.400;2023-07-09T11:37:54;4.00;;;3.17;;
9422;SDS011;65863;49.506;10.400;2023-07-09T11:40:45;5.47;;;3.10;;
9422;SDS011;65863;49.506;10.400;2023-07-09T11:43:46;11.65;;;3.30;;
9422;SDS011;65863;49.506;10.400;2023-07-09T11:46:31;5.35;;;2.90;;
9422;SDS011;65863;49.506;10.400;2023-07-09T11:49:18;5.10;;;3.10;;
9422;SDS011;65863;49.506;10.400;2023-07-09T11:52:06;3.92;;;3.20;;
9422;SDS011;65863;49.506;10.400;2023-07-09T11:54:51;8.25;;;3.03;;
9422;SDS011;65863;49.506;10.400;2023-07-09T11:57:34;6.75;;;3.47;;
9422;SDS011;65863;49.506;10.400;2023-07-09T12:00:19;5.07;;;3.50;;
9422;SDS011;65863;49.506;10.400;2023-07-09T12:03:03;5.80;;;3.47;;
9422;SDS011;65863;49.506;10.400;2023-07-09T12:05:55;7.47;;;3.63;;
9422;SDS011;65863;49.506;10.400;2023-07-09T12:08:49;6.32;;;3.25;;
9422;SDS011;65863;49.506;10.400;2023-07-09T12:11:34;5.97;;;3.28;;
9422;SDS011;65863;49.506;10.400;2023-07-09T12:14:20;6.65;;;3.60;;
9422;SDS011;65863;49.506;10.400;2023-07-09T12:17:07;7.15;;;3.30;;
9422;SDS011;65863;49.506;10.400;2023-07-09T12:19:52;4.45;;;3.13;;
9422;SDS011;65863;49.506;10.400;2023-07-09T12:22:36;4.00;;;3.15;;
9422;SDS011;65863;49.506;10.400;2023-07-09T12:25:24;4.60;;;3.35;;
9422;SDS011;65863;49.506;10.400;2023-07-09T12:28:13;5.43;;;3.38;;
9422;SDS011;65863;49.506;10.400;2023-07-09T12:30:58;4.15;;;3.30;;
9422;SDS011;65863;49.506;10.400;2023-07-09T12:33:49;5.32;;;3.03;;
9422;SDS011;65863;49.506;10.400;2023-07-09T12:36:35;4.00;;;3.35;;
9422;SDS011;65863;49.506;10.400;2023-07-09T12:39:23;5.15;;;3.92;;
9422;SDS011;65863;49.506;10.400;2023-07-09T12:42:14;4.95;;;3.08;;
9422;SDS011;65863;49.506;10.400;2023-07-09T12:45:01;4.45;;;3.47;;
9422;SDS011;65863;49.506;10.400;2023-07-09T12:47:46;4.65;;;3.38;;
9422;SDS011;65863;49.506;10.400;2023-07-09T12:50:32;4.57;;;3.00;;
9422;SDS011;65863;49.506;10.400;2023-07-09T12:53:19;4.63;;;3.30;;
9422;SDS011;65863;49.506;10.400;2023-07-09T12:56:11;4.57;;;3.13;;
9422;SDS011;65863;49.506;10.400;2023-07-09T12:58:57;8.05;;;2.97;;
9422;SDS011;65863;49.506;10.400;2023-07-09T13:01:41;7.40;;;3.30;;
9422;SDS011;65863;49.506;10.400;2023-07-09T13:04:33;11.25;;;3.40;;
9422;SDS011;65863;49.506;10.400;2023-07-09T13:13:12;3.80;;;3.30;;
9422;SDS011;65863;49.506;10.400;2023-07-09T13:15:58;5.45;;;3.30;;
9422;SDS011;65863;49.506;10.400;2023-07-09T13:18:45;5.90;;;3.30;;
9422;SDS011;65863;49.506;10.400;2023-07-09T13:21:29;4.95;;;3.10;;
9422;SDS011;65863;49.506;10.400;2023-07-09T13:24:23;8.00;;;3.63;;
9422;SDS011;65863;49.506;10.400;2023-07-09T13:27:11;6.25;;;3.53;;
9422;SDS011;65863;49.506;10.400;2023-07-09T13:29:58;4.45;;;2.90;;
9422;SDS011;65863;49.506;10.400;2023-07-09T13:32:41;7.43;;;3.13;;
9422;SDS011;65863;49.506;10.400;2023-07-09T13:35:32;8.32;;;3.08;;
9422;SDS011;65863;49.506;10.400;2023-07-09T13:38:17;6.38;;;3.63;;
9422;SDS011;65863;49.506;10.400;2023-07-09T13:41:13;6.97;;;3.22;;
9422;SDS011;65863;49.506;10.400;2023-07-09T13:44:00;3.72;;;3.20;;
9422;SDS011;65863;49.506;10.400;2023-07-09T13:46:44;4.40;;;2.97;;
9422;SDS011;65863;49.506;10.400;2023-07-09T13:49:28;3.38;;;3.08;;
9422;SDS011;65863;49.506;10.400;2023-07-09T13:52:14;3.75;;;2.80;;
9422;SDS011;65863;49.506;10.400;2023-07-09T13:55:00;4.47;;;3.20;;
9422;SDS011;65863;49.506;10.400;2023-07-09T13:57:44;4.60;;;3.05;;
9422;SDS011;65863;49.506;10.400;2023-07-09T14:00:28;4.90;;;2.97;;
9422;SDS011;65863;49.506;10.400;2023-07-09T14:03:17;4.70;;;2.83;;
9422;SDS011;65863;49.506;10.400;2023-07-09T14:06:01;4.85;;;3.15;;
9422;SDS011;65863;49.506;10.400;2023-07-09T14:08:46;6.20;;;3.42;;
9422;SDS011;65863;49.506;10.400;2023-07-09T14:11:30;3.85;;;3.03;;
9422;SDS011;65863;49.506;10.400;2023-07-09T14:14:18;5.18;;;3.40;;
9422;SDS011;65863;49.506;10.400;2023-07-09T14:17:08;4.50;;;2.85;;
9422;SDS011;65863;49.506;10.400;2023-07-09T14:19:52;4.57;;;3.05;;
9422;SDS011;65863;49.506;10.400;2023-07-09T14:22:36;5.15;;;3.25;;
9422;SDS011;65863;49.506;10.400;2023-07-09T14:25:22;5.00;;;3.25;;
9422;SDS011;65863;49.506;10.400;2023-07-09T14:28:15;3.92;;;3.17;;
9422;SDS011;65863;49.506;10.400;2023-07-09T14:31:01;5.93;;;3.00;;
9422;SDS011;65863;49.506;10.400;2023-07-09T14:33:46;5.68;;;3.33;;
9422;SDS011;65863;49.506;10.400;2023-07-09T14:36:30;7.88;;;3.10;;
9422;SDS011;65863;49.506;10.400;2023-07-09T14:39:14;3.92;;;2.95;;
9422;SDS011;65863;49.506;10.400;2023-07-09T14:41:58;6.80;;;3.53;;
9422;SDS011;65863;49.506;10.400;2023-07-09T14:44:43;6.47;;;3.30;;
9422;SDS011;65863;49.506;10.400;2023-07-09T14:47:27;4.15;;;2.90;;
9422;SDS011;65863;49.506;10.400;2023-07-09T14:50:11;5.63;;;3.30;;
9422;SDS011;65863;49.506;10.400;2023-07-09T14:52:55;6.05;;;3.10;;
9422;SDS011;65863;49.506;10.400;2023-07-09T14:55:40;4.80;;;3.15;;
9422;SDS011;65863;49.506;10.400;2023-07-09T14:58:25;4.88;;;3.20;;
9422;SDS011;65863;49.506;10.400;2023-07-09T15:01:13;7.60;;;3.35;;
9422;SDS011;65863;49.506;10.400;2023-07-09T15:03:58;4.65;;;2.85;;
9422;SDS011;65863;49.506;10.400;2023-07-09T15:06:42;5.65;;;3.00;;
9422;SDS011;65863;49.506;10.400;2023-07-09T15:09:27;4.47;;;3.03;;
9422;SDS011;65863;49.506;10.400;2023-07-09T15:12:22;3.75;;;3.30;;
9422;SDS011;65863;49.506;10.400;2023-07-09T15:15:24;5.93;;;3.33;;
9422;SDS011;65863;49.506;10.400;2023-07-09T15:18:12;4.70;;;3.35;;
9422;SDS011;65863;49.506;10.400;2023-07-09T15:20:58;7.15;;;3.28;;
9422;SDS011;65863;49.506;10.400;2023-07-09T15:23:43;4.20;;;3.30;;
9422;SDS011;65863;49.506;10.400;2023-07-09T15:26:30;6.47;;;3.42;;
9422;SDS011;65863;49.506;10.400;2023-07-09T15:29:15;4.43;;;3.63;;
9422;SDS011;65863;49.506;10.400;2023-07-09T15:31:59;8.98;;;5.30;;
9422;SDS011;65863;49.506;10.400;2023-07-09T15:34:43;3.65;;;3.10;;
9422;SDS011;65863;49.506;10.400;2023-07-09T15:37:27;6.07;;;3.00;;
9422;SDS011;65863;49.506;10.400;2023-07-09T15:40:16;4.07;;;3.00;;
9422;SDS011;65863;49.506;10.400;2023-07-09T15:43:00;6.60;;;3.30;;
9422;SDS011;65863;49.506;10.400;2023-07-09T15:45:49;3.45;;;2.92;;
9422;SDS011;65863;49.506;10.400;2023-07-09T15:48:35;4.00;;;2.97;;
9422;SDS011;65863;49.506;10.400;2023-07-09T15:51:21;5.60;;;3.35;;
9422;SDS011;65863;49.506;10.400;2023-07-09T15:54:18;5.53;;;3.10;;
9422;SDS011;65863;49.506;10.400;2023-07-09T15:57:03;7.45;;;3.45;;
9422;SDS011;65863;49.506;10.400;2023-07-09T15:59:48;7.55;;;3.00;;
9422;SDS011;65863;49.506;10.400;2023-07-09T16:02:32;4.47;;;2.97;;
9422;SDS011;65863;49.506;10.400;2023-07-09T16:05:29;4.55;;;3.20;;
9422;SDS011;65863;49.506;10.400;2023-07-09T16:08:14;7.15;;;3.20;;
9422;SDS011;65863;49.506;10.400;2023-07-09T16:10:58;3.85;;;3.08;;
9422;SDS011;65863;49.506;10.400;2023-07-09T16:13:42;3.85;;;3.13;;
9422;SDS011;65863;49.506;10.400;2023-07-09T16:16:27;6.85;;;3.20;;
9422;SDS011;65863;49.506;10.400;2023-07-09T16:19:11;4.95;;;3.08;;
9422;SDS011;65863;49.506;10.400;2023-07-09T16:21:56;9.90;;;5.28;;
9422;SDS011;65863;49.506;10.400;2023-07-09T16:24:43;6.68;;;3.30;;
9422;SDS011;65863;49.506;10.400;2023-07-09T16:27:27;4.65;;;3.35;;
9422;SDS011;65863;49.506;10.400;2023-07-09T16:30:15;7.10;;;3.10;;
9422;SDS011;65863;49.506;10.400;2023-07-09T16:33:09;8.35;;;3.50;;
9422;SDS011;65863;49.506;10.400;2023-07-09T16:35:53;4.13;;;3.05;;
9422;SDS011;65863;49.506;10.400;2023-07-09T16:38:37;8.30;;;3.67;;
9422;SDS011;65863;49.506;10.400;2023-07-09T16:41:22;7.05;;;3.53;;
9422;SDS011;65863;49.506;10.400;2023-07-09T16:44:09;8.50;;;3.17;;
9422;SDS011;65863;49.506;10.400;2023-07-09T16:46:54;6.13;;;3.45;;
9422;SDS011;65863;49.506;10.400;2023-07-09T16:49:39;5.82;;;2.90;;
9422;SDS011;65863;49.506;10.400;2023-07-09T16:52:25;5.78;;;3.20;;
9422;SDS011;65863;49.506;10.400;2023-07-09T16:55:20;3.67;;;3.05;;
9422;SDS011;65863;49.506;10.400;2023-07-09T17:01:14;4.68;;;3.25;;
9422;SDS011;65863;49.506;10.400;2023-07-09T17:03:58;4.32;;;2.85;;
9422;SDS011;65863;49.506;10.400;2023-07-09T17:06:42;5.80;;;3.10;;
9422;SDS011;65863;49.506;10.400;2023-07-09T17:09:26;6.60;;;3.30;;
9422;SDS011;65863;49.506;10.400;2023-07-09T17:12:10;4.82;;;2.63;;
9422;SDS011;65863;49.506;10.400;2023-07-09T17:14:55;3.75;;;3.10;;